createdAt,value
2018-04-28T00:01:40.401Z,13.07
2018-04-28T00:04:08.738Z,12.13
2018-04-28T00:06:37.024Z,12.17
2018-04-28T00:09:06.497Z,14.50
2018-04-28T00:11:36.321Z,12.60
2018-04-28T00:14:04.604Z,11.20
2018-04-28T00:19:41.504Z,14.93
2018-04-28T00:22:28.580Z,10.97
2018-04-28T00:25:00.129Z,12.00
2018-04-28T00:27:30.258Z,13.67
2018-04-28T00:30:10.124Z,15.67
2018-04-28T00:32:39.165Z,16.27
2018-04-28T00:35:09.888Z,14.73
2018-04-28T00:37:57.021Z,12.57
2018-04-28T00:40:26.322Z,15.20
2018-04-28T00:42:57.688Z,14.30
2018-04-28T00:45:37.556Z,12.90
2018-04-28T00:51:20.666Z,12.47
2018-04-28T00:53:49.728Z,12.50
2018-04-28T00:56:27.538Z,18.20
2018-04-28T00:58:57.647Z,15.70
2018-04-28T01:01:28.568Z,16.13
2018-04-28T01:03:59.579Z,14.70
2018-04-28T01:06:27.873Z,12.43
2018-04-28T01:08:56.208Z,14.00
2018-04-28T01:11:27.340Z,15.30
2018-04-28T01:13:57.133Z,13.10
2018-04-28T01:16:27.208Z,13.60
2018-04-28T01:18:56.472Z,13.70
2018-04-28T01:21:31.392Z,16.40
2018-04-28T01:24:00.536Z,12.40
2018-04-28T01:40:08.814Z,11.33
2018-04-28T01:45:37.746Z,14.57
2018-04-28T01:48:25.548Z,14.57
2018-04-28T01:51:14.673Z,14.07
2018-04-28T01:56:55.008Z,13.50
2018-04-28T01:59:24.917Z,14.83
2018-04-28T02:01:54.270Z,16.63
2018-04-28T02:04:22.561Z,16.63
2018-04-28T02:07:03.520Z,13.73
2018-04-28T02:09:32.624Z,13.80
2018-04-28T02:12:08.925Z,13.43
2018-04-28T02:17:54.321Z,14.97
2018-04-28T02:23:43.561Z,13.87
2018-04-28T02:26:14.325Z,15.40
2018-04-28T02:28:44.414Z,15.23
2018-04-28T02:34:27.989Z,14.20
2018-04-28T02:36:56.888Z,16.03
2018-04-28T02:39:27.675Z,12.83
2018-04-28T02:42:03.406Z,14.50
2018-04-28T02:44:33.568Z,13.33
2018-04-28T02:47:10.336Z,17.73
2018-04-28T02:52:40.989Z,14.37
2018-04-28T02:55:16.105Z,15.57
2018-04-28T02:57:54.488Z,20.07
2018-04-28T03:00:34.633Z,17.50
2018-04-28T03:06:12.237Z,18.53
2018-04-28T03:08:40.536Z,19.00
2018-04-28T03:11:10.269Z,29.43
2018-04-28T03:13:41.165Z,18.20
2018-04-28T03:16:12.757Z,19.10
2018-04-28T03:18:41.536Z,19.17
2018-04-28T03:21:09.584Z,16.17
2018-04-28T03:23:42.290Z,17.93
2018-04-28T03:26:22.280Z,16.63
2018-04-28T03:28:53.301Z,17.23
2018-04-28T03:31:22.124Z,17.17
2018-04-28T03:36:54.841Z,17.57
2018-04-28T03:39:23.669Z,15.77
2018-04-28T03:41:56.856Z,16.83
2018-04-28T03:44:32.780Z,14.50
2018-04-28T03:50:20.414Z,15.97
2018-04-28T03:53:05.323Z,18.27
2018-04-28T03:55:34.152Z,18.23
2018-04-28T03:58:14.893Z,15.13
2018-04-28T04:00:54.881Z,17.10
2018-04-28T04:03:25.733Z,19.57
2018-04-28T04:06:05.904Z,17.43
2018-04-28T04:08:43.509Z,15.57
2018-04-28T04:14:27.490Z,19.03
2018-04-28T04:17:18.293Z,16.90
2018-04-28T04:22:57.856Z,15.23
2018-04-28T04:25:33.933Z,19.10
2018-04-28T04:28:04.956Z,21.07
2018-04-28T04:33:51.265Z,17.83
2018-04-28T04:36:28.428Z,15.83
2018-04-28T04:38:59.161Z,15.13
2018-04-28T04:44:29.426Z,14.23
2018-04-28T04:47:00.025Z,17.00
2018-04-28T04:49:28.127Z,18.10
2018-04-28T04:55:08.589Z,16.43
2018-04-28T04:57:42.537Z,15.87
2018-04-28T05:03:36.761Z,18.10
2018-04-28T05:06:22.521Z,18.30
2018-04-28T05:08:59.432Z,15.30
2018-04-28T05:11:29.247Z,18.30
2018-04-28T05:13:58.800Z,21.07
2018-04-28T05:16:38.413Z,15.43
2018-04-28T05:22:30.713Z,15.40
2018-04-28T05:27:55.724Z,15.53
2018-04-28T05:33:34.005Z,12.60
2018-04-28T05:36:09.901Z,11.93
2018-04-28T05:41:53.740Z,15.43
2018-04-28T05:47:23.996Z,15.23
2018-04-28T05:53:04.437Z,10.20
2018-04-28T05:58:49.062Z,10.63
2018-04-28T06:01:29.448Z,9.50
2018-04-28T06:07:14.109Z,9.07
2018-04-28T06:09:45.872Z,11.73
2018-04-28T06:12:24.825Z,9.50
2018-04-28T06:14:57.445Z,9.90
2018-04-28T06:17:39.429Z,10.80
2018-04-28T06:20:15.220Z,8.73
2018-04-28T06:22:44.057Z,8.33
2018-04-28T06:25:12.101Z,8.30
2018-04-28T06:27:40.148Z,6.30
2018-04-28T06:30:08.289Z,6.23
2018-04-28T06:32:36.329Z,8.63
2018-04-28T06:35:04.421Z,9.10
2018-04-28T06:37:33.261Z,7.20
2018-04-28T06:40:01.361Z,5.90
2018-04-28T06:42:29.400Z,6.33
2018-04-28T06:44:57.449Z,6.23
2018-04-28T06:47:25.533Z,6.40
2018-04-28T06:49:53.572Z,7.50
2018-04-28T06:52:21.661Z,6.70
2018-04-28T06:54:49.705Z,11.00
2018-04-28T06:57:18.853Z,5.83
2018-04-28T06:59:46.941Z,8.13
2018-04-28T07:02:14.985Z,8.27
2018-04-28T07:04:43.840Z,8.57
2018-04-28T07:07:11.881Z,7.30
2018-04-28T07:09:40.705Z,5.73
2018-04-28T07:12:08.813Z,7.10
2018-04-28T07:14:36.901Z,8.97
2018-04-28T07:17:04.989Z,7.13
2018-04-28T07:19:33.026Z,4.63
2018-04-28T07:22:01.117Z,6.77
2018-04-28T07:24:29.223Z,5.60
2018-04-28T07:26:57.297Z,6.47
2018-04-28T07:29:25.396Z,7.57
2018-04-28T07:31:53.437Z,5.77
2018-04-28T07:34:22.240Z,6.60
2018-04-28T07:36:51.161Z,7.30
2018-04-28T07:39:19.229Z,7.47
2018-04-28T07:41:48.081Z,7.20
2018-04-28T07:44:16.119Z,7.67
2018-04-28T07:46:45.045Z,6.47
2018-04-28T07:49:13.084Z,6.53
2018-04-28T07:51:41.124Z,7.07
2018-04-28T07:54:09.543Z,7.17
2018-04-28T07:56:37.569Z,8.13
2018-04-28T07:59:05.617Z,5.00
2018-04-28T08:01:33.761Z,7.97
2018-04-28T08:04:01.805Z,8.20
2018-04-28T08:06:30.229Z,6.63
2018-04-28T08:08:58.329Z,6.20
2018-04-28T08:11:26.369Z,4.33
2018-04-28T08:13:55.230Z,5.10
2018-04-28T08:16:23.268Z,4.00
2018-04-28T08:18:51.312Z,10.60
2018-04-28T08:21:19.404Z,11.33
2018-04-28T08:23:47.498Z,5.53
2018-04-28T08:26:16.307Z,5.13
2018-04-28T08:28:45.161Z,4.67
2018-04-28T08:31:13.261Z,8.23
2018-04-28T08:33:41.309Z,5.63
2018-04-28T08:36:09.348Z,5.73
2018-04-28T08:38:38.205Z,4.77
2018-04-28T08:41:06.244Z,6.90
2018-04-28T08:43:35.105Z,11.63
2018-04-28T08:46:03.256Z,3.60
2018-04-28T08:48:31.353Z,5.40
2018-04-28T08:50:59.801Z,7.37
2018-04-28T08:53:27.789Z,5.30
2018-04-28T08:55:56.684Z,4.27
2018-04-28T08:58:25.629Z,6.53
2018-04-28T09:01:01.606Z,8.10
2018-04-28T09:03:29.772Z,4.67
2018-04-28T09:05:57.863Z,3.03
2018-04-28T09:08:26.172Z,5.43
2018-04-28T09:10:54.457Z,3.37
2018-04-28T09:13:22.742Z,4.17
2018-04-28T09:15:52.572Z,3.23
2018-04-28T09:18:20.853Z,4.97
2018-04-28T09:20:49.974Z,7.27
2018-04-28T09:23:18.253Z,7.00
2018-04-28T09:25:48.097Z,2.50
2018-04-28T09:28:18.001Z,4.40
2018-04-28T09:30:46.282Z,3.93
2018-04-28T09:33:14.560Z,3.60
2018-04-28T09:35:42.892Z,5.27
2018-04-28T09:38:11.941Z,4.97
2018-04-28T09:40:40.275Z,4.67
2018-04-28T09:43:08.555Z,6.80
2018-04-28T09:45:36.881Z,7.70
2018-04-28T09:48:05.943Z,7.53
2018-04-28T09:50:34.344Z,5.03
2018-04-28T09:53:02.625Z,7.30
2018-04-28T09:55:30.905Z,5.10
2018-04-28T09:58:06.091Z,5.33
2018-04-28T10:00:35.345Z,5.03
2018-04-28T10:03:05.525Z,5.07
2018-04-28T10:05:33.860Z,3.60
2018-04-28T10:08:02.316Z,3.93
2018-04-28T10:10:32.141Z,5.90
2018-04-28T10:13:00.572Z,4.37
2018-04-28T10:15:28.809Z,5.00
2018-04-28T10:17:57.916Z,4.30
2018-04-28T10:20:26.286Z,4.33
2018-04-28T10:22:54.596Z,5.03
2018-04-28T10:25:22.925Z,5.13
2018-04-28T10:27:51.216Z,3.67
2018-04-28T10:30:19.824Z,3.60
2018-04-28T10:32:48.157Z,4.20
2018-04-28T10:35:16.441Z,9.20
2018-04-28T10:37:45.752Z,4.70
2018-04-28T10:40:14.073Z,5.30
2018-04-28T10:42:43.265Z,4.13
2018-04-28T10:45:11.861Z,2.90
2018-04-28T10:47:40.138Z,4.10
2018-04-28T10:50:08.416Z,6.83
2018-04-28T10:52:36.744Z,4.13
2018-04-28T10:55:05.076Z,4.43
2018-04-28T10:57:33.504Z,2.50
2018-04-28T11:00:01.786Z,6.10
2018-04-28T11:02:30.113Z,2.57
2018-04-28T11:04:59.156Z,9.13
2018-04-28T11:07:27.497Z,2.23
2018-04-28T11:09:55.828Z,7.10
2018-04-28T11:12:24.152Z,5.03
2018-04-28T11:14:52.561Z,2.77
2018-04-28T11:17:20.957Z,2.97
2018-04-28T11:19:49.313Z,6.23
2018-04-28T11:22:17.628Z,8.57
2018-04-28T11:24:46.216Z,4.93
2018-04-28T11:27:14.497Z,2.47
2018-04-28T11:29:43.688Z,5.47
2018-04-28T11:32:12.109Z,4.27
2018-04-28T11:34:40.396Z,2.50
2018-04-28T11:37:08.725Z,3.10
2018-04-28T11:39:37.271Z,5.50
2018-04-28T11:42:05.552Z,5.37
2018-04-28T11:44:33.881Z,1.97
2018-04-28T11:47:03.001Z,2.10
2018-04-28T11:49:31.356Z,2.10
2018-04-28T11:51:59.753Z,3.30
2018-04-28T11:54:28.133Z,3.93
2018-04-28T11:56:56.469Z,7.53
2018-04-28T11:59:25.512Z,2.30
2018-04-28T12:01:53.845Z,10.13
2018-04-28T12:04:22.929Z,2.30
2018-04-28T12:06:51.209Z,6.17
2018-04-28T12:09:19.537Z,2.37
2018-04-28T12:11:48.581Z,2.07
2018-04-28T12:14:16.909Z,2.90
2018-04-28T12:16:45.190Z,3.20
2018-04-28T12:19:13.774Z,1.97
2018-04-28T12:21:42.055Z,1.73
2018-04-28T12:24:10.369Z,2.10
2018-04-28T12:26:38.701Z,1.50
2018-04-28T12:29:07.825Z,3.03
2018-04-28T12:31:36.109Z,3.23
2018-04-28T12:34:04.444Z,1.73
2018-04-28T12:36:32.728Z,2.40
2018-04-28T12:39:01.065Z,4.00
2018-04-28T12:41:29.657Z,1.77
2018-04-28T12:43:57.936Z,2.50
2018-04-28T12:46:27.009Z,2.00
2018-04-28T12:48:55.340Z,2.43
2018-04-28T12:51:23.689Z,2.40
2018-04-28T12:53:53.533Z,3.40
2018-04-28T12:56:21.812Z,4.00
2018-04-28T12:58:50.105Z,1.83
2018-04-28T13:01:18.476Z,2.70
2018-04-28T13:03:46.752Z,5.00
2018-04-28T13:06:15.090Z,1.33
2018-04-28T13:08:43.408Z,5.03
2018-04-28T13:11:11.744Z,2.30
2018-04-28T13:13:40.083Z,1.40
2018-04-28T13:16:08.415Z,8.30
2018-04-28T13:18:36.733Z,4.00
2018-04-28T13:21:05.849Z,2.50
2018-04-28T13:23:34.528Z,4.97
2018-04-28T13:26:02.815Z,2.10
2018-04-28T13:28:31.089Z,5.00
2018-04-28T13:30:59.429Z,2.10
2018-04-28T13:33:27.752Z,2.70
2018-04-28T13:35:56.038Z,3.37
2018-04-28T13:38:24.369Z,6.10
2018-04-28T13:40:52.745Z,1.23
2018-04-28T13:43:21.449Z,2.83
2018-04-28T13:45:49.732Z,2.13
2018-04-28T13:48:18.101Z,1.40
2018-04-28T13:50:46.716Z,2.20
2018-04-28T13:53:15.000Z,3.33
2018-04-28T13:55:43.280Z,9.33
2018-04-28T13:58:11.608Z,1.90
2018-04-28T14:00:39.893Z,0.80
2018-04-28T14:03:08.245Z,2.77
2018-04-28T14:05:36.569Z,6.17
2018-04-28T14:08:04.900Z,5.70
2018-04-28T14:10:33.227Z,1.43
2018-04-28T14:13:01.498Z,4.90
2018-04-28T14:15:29.907Z,1.63
2018-04-28T14:17:58.195Z,5.20
2018-04-28T14:20:26.468Z,2.30
2018-04-28T14:22:54.878Z,3.07
2018-04-28T14:25:23.194Z,4.50
2018-04-28T14:27:51.521Z,0.87
2018-04-28T14:30:19.809Z,2.33
2018-04-28T14:32:48.136Z,1.63
2018-04-28T14:35:16.416Z,0.97
2018-04-28T14:37:44.747Z,1.93
2018-04-28T14:40:13.792Z,2.90
2018-04-28T14:42:42.085Z,2.73
2018-04-28T14:45:10.408Z,1.63
2018-04-28T14:47:38.692Z,2.60
2018-04-28T14:50:07.189Z,2.20
2018-04-28T14:52:35.473Z,2.53
2018-04-28T14:55:03.805Z,1.07
2018-04-28T14:57:32.852Z,1.33
2018-04-28T15:00:01.133Z,0.80
2018-04-28T15:02:29.457Z,2.97
2018-04-28T15:04:58.144Z,1.40
2018-04-28T15:07:26.421Z,5.23
2018-04-28T15:09:54.954Z,1.47
2018-04-28T15:12:23.224Z,3.23
2018-04-28T15:14:51.509Z,1.10
2018-04-28T15:17:19.900Z,8.43
2018-04-28T15:19:48.229Z,3.23
2018-04-28T15:22:17.703Z,0.60
2018-04-28T15:24:45.976Z,7.07
2018-04-28T15:27:14.261Z,1.27
2018-04-28T15:29:42.593Z,3.07
2018-04-28T15:32:10.879Z,3.63
2018-04-28T15:34:40.718Z,1.00
2018-04-28T15:37:08.997Z,5.20
2018-04-28T15:39:37.349Z,2.23
2018-04-28T15:42:05.769Z,1.47
2018-04-28T15:44:34.066Z,2.00
2018-04-28T15:47:02.348Z,2.10
2018-04-28T15:49:30.730Z,1.80
2018-04-28T15:51:59.320Z,3.57
2018-04-28T15:54:27.609Z,2.40
2018-04-28T15:56:55.880Z,2.37
2018-04-28T15:59:24.213Z,1.00
2018-04-28T16:01:52.558Z,1.87
2018-04-28T16:04:21.180Z,5.13
2018-04-28T16:06:49.465Z,2.30
2018-04-28T16:09:17.769Z,1.00
2018-04-28T16:11:46.104Z,1.90
2018-04-28T16:14:14.380Z,0.90
2018-04-28T16:16:43.473Z,2.47
2018-04-28T16:19:12.525Z,3.93
2018-04-28T16:21:40.854Z,0.80
2018-04-28T16:24:09.185Z,2.40
2018-04-28T16:26:37.545Z,2.97
2018-04-28T16:29:05.907Z,0.90
2018-04-28T16:31:34.298Z,3.40
2018-04-28T16:34:02.587Z,1.23
2018-04-28T16:36:30.902Z,3.13
2018-04-28T16:38:59.180Z,1.13
2018-04-28T16:41:27.879Z,1.33
2018-04-28T16:43:56.152Z,0.70
2018-04-28T16:46:24.448Z,2.10
2018-04-28T16:48:52.780Z,6.70
2018-04-28T16:51:21.852Z,4.30
2018-04-28T16:53:50.133Z,3.33
2018-04-28T16:56:18.460Z,4.80
2018-04-28T16:58:47.509Z,1.90
2018-04-28T17:01:15.840Z,1.40
2018-04-28T17:03:44.120Z,1.23
2018-04-28T17:06:12.456Z,3.37
2018-04-28T17:08:40.798Z,2.20
2018-04-28T17:11:09.129Z,4.00
2018-04-28T17:13:37.473Z,3.03
2018-04-28T17:16:05.768Z,1.87
2018-04-28T17:18:35.553Z,1.20
2018-04-28T17:21:03.880Z,1.53
2018-04-28T17:23:32.164Z,3.50
2018-04-28T17:26:00.493Z,2.43
2018-04-28T17:28:29.586Z,1.40
2018-04-28T17:30:58.637Z,4.23
2018-04-28T17:33:26.988Z,1.30
2018-04-28T17:35:56.038Z,7.77
2018-04-28T17:38:24.425Z,2.20
2018-04-28T17:40:52.704Z,2.10
2018-04-28T17:43:21.033Z,0.80
2018-04-28T17:45:49.325Z,1.10
2018-04-28T17:48:17.649Z,3.50
2018-04-28T17:50:46.745Z,2.80
2018-04-28T17:53:15.029Z,2.70
2018-04-28T17:55:43.312Z,11.70
2018-04-28T17:58:12.004Z,50.53
2018-04-28T18:00:40.293Z,16.60
2018-04-28T18:03:08.580Z,11.27
2018-04-28T18:05:37.688Z,6.87
2018-04-28T18:08:05.968Z,6.87
2018-04-28T18:10:34.369Z,10.00
2018-04-28T18:13:02.656Z,13.67
2018-04-28T18:15:30.984Z,14.57
2018-04-28T18:18:00.067Z,18.63
2018-04-28T18:20:28.460Z,17.23
2018-04-28T18:22:56.827Z,11.37
2018-04-28T18:25:25.121Z,15.03
2018-04-28T18:27:53.461Z,13.20
2018-04-28T18:30:21.744Z,12.53
2018-04-28T18:32:50.092Z,12.23
2018-04-28T18:35:18.428Z,12.87
2018-04-28T18:37:46.715Z,3.77
2018-04-28T18:40:15.052Z,6.17
2018-04-28T18:42:43.331Z,9.03
2018-04-28T18:45:11.611Z,5.07
2018-04-28T18:47:39.944Z,1.93
2018-04-28T18:50:08.228Z,4.63
2018-04-28T18:52:36.559Z,3.97
2018-04-28T18:55:04.896Z,5.67
2018-04-28T18:57:33.244Z,3.70
2018-04-28T19:00:01.525Z,2.53
2018-04-28T19:02:30.169Z,2.67
2018-04-28T19:04:58.451Z,2.93
2018-04-28T19:07:26.748Z,3.77
2018-04-28T19:09:55.078Z,3.53
2018-04-28T19:12:24.125Z,1.93
2018-04-28T19:14:52.457Z,4.70
2018-04-28T19:17:22.289Z,3.10
2018-04-28T19:19:51.337Z,1.73
2018-04-28T19:22:19.708Z,3.67
2018-04-28T19:24:48.749Z,4.60
2018-04-28T19:27:17.033Z,2.80
2018-04-28T19:29:45.365Z,3.23
2018-04-28T19:32:13.693Z,1.80
2018-04-28T19:34:42.046Z,3.33
2018-04-28T19:37:10.566Z,1.43
2018-04-28T19:39:39.696Z,2.30
2018-04-28T19:42:08.191Z,1.53
2018-04-28T19:44:36.509Z,2.87
2018-04-28T19:47:04.905Z,5.30
2018-04-28T19:49:33.233Z,3.50
2018-04-28T19:52:02.285Z,4.20
2018-04-28T19:54:30.609Z,2.27
2018-04-28T19:56:58.977Z,4.50
2018-04-28T19:59:27.310Z,2.63
2018-04-28T20:01:56.357Z,4.93
2018-04-28T20:04:24.685Z,2.47
2018-04-28T20:06:53.017Z,3.40
2018-04-28T20:09:21.357Z,1.83
2018-04-28T20:11:51.182Z,4.23
2018-04-28T20:14:19.568Z,4.73
2018-04-28T20:16:47.895Z,2.30
2018-04-28T20:19:16.984Z,2.10
2018-04-28T20:21:46.081Z,5.90
2018-04-28T20:24:26.229Z,3.60
2018-04-28T20:26:54.509Z,4.77
2018-04-28T20:29:22.837Z,5.43
2018-04-28T20:31:51.205Z,4.40
2018-04-28T20:34:19.604Z,4.30
2018-04-28T20:36:47.880Z,3.47
2018-04-28T20:39:16.480Z,7.90
2018-04-28T20:41:44.762Z,6.40
2018-04-28T20:44:13.041Z,3.17
2018-04-28T20:46:41.373Z,3.00
2018-04-28T20:49:09.648Z,4.57
2018-04-28T20:51:37.977Z,2.53
2018-04-28T20:54:06.283Z,6.10
2018-04-28T20:56:34.605Z,3.07
2018-04-28T20:59:02.940Z,5.23
2018-04-28T21:01:32.033Z,4.50
2018-04-28T21:04:01.080Z,2.47
2018-04-28T21:06:29.510Z,2.23
2018-04-28T21:08:59.297Z,3.80
2018-04-28T21:11:27.581Z,2.00
2018-04-28T21:13:55.909Z,4.97
2018-04-28T21:16:24.188Z,4.13
2018-04-28T21:18:52.613Z,5.13
2018-04-28T21:21:20.978Z,2.77
2018-04-28T21:23:49.300Z,9.93
2018-04-28T21:26:18.680Z,4.20
2018-04-28T21:28:46.961Z,2.60
2018-04-28T21:31:15.246Z,3.23
2018-04-28T21:33:43.569Z,2.33
2018-04-28T21:36:11.852Z,2.03
2018-04-28T21:38:40.228Z,2.10
2018-04-28T21:41:08.552Z,8.90
2018-04-28T21:43:37.733Z,2.70
2018-04-28T21:46:06.320Z,3.37
2018-04-28T21:48:34.605Z,2.20
2018-04-28T21:51:02.901Z,4.17
2018-04-28T21:53:31.243Z,2.90
2018-04-28T21:55:59.521Z,7.70
2018-04-28T21:58:28.683Z,2.50
2018-04-28T22:00:57.005Z,3.23
2018-04-28T22:03:26.049Z,3.33
2018-04-28T22:05:54.380Z,4.50
2018-04-28T22:08:22.661Z,2.37
2018-04-28T22:10:51.042Z,4.00
2018-04-28T22:13:19.323Z,3.23
2018-04-28T22:15:47.657Z,3.10
2018-04-28T22:18:15.929Z,2.60
2018-04-28T22:20:45.764Z,2.70
2018-04-28T22:23:14.856Z,3.00
2018-04-28T22:25:43.137Z,5.50
2018-04-28T22:28:11.465Z,6.37
2018-04-28T22:30:40.509Z,3.90
2018-04-28T22:33:08.840Z,3.30
2018-04-28T22:35:37.120Z,2.63
2018-04-28T22:38:05.713Z,5.77
2018-04-28T22:40:34.100Z,4.20
2018-04-28T22:43:02.386Z,4.30
2018-04-28T22:45:30.711Z,6.87
2018-04-28T22:47:59.037Z,4.57
2018-04-28T22:50:27.320Z,7.97
2018-04-28T22:52:55.656Z,5.40
2018-04-28T22:55:23.993Z,14.30
2018-04-28T22:57:52.281Z,23.60
2018-04-28T23:00:21.400Z,16.10
2018-04-28T23:02:50.220Z,25.27
2018-04-28T23:05:18.545Z,29.53
2018-04-28T23:07:46.881Z,25.63
2018-04-28T23:10:15.173Z,22.90
2018-04-28T23:12:43.513Z,14.70
2018-04-28T23:15:11.805Z,19.20
2018-04-28T23:17:40.192Z,18.87
2018-04-28T23:20:10.029Z,8.93
2018-04-28T23:22:38.314Z,9.80
2018-04-28T23:25:06.602Z,8.90
2018-04-28T23:27:34.929Z,8.20
2018-04-28T23:30:03.209Z,7.70
2018-04-28T23:32:32.301Z,11.03
2018-04-28T23:35:01.481Z,7.27
2018-04-28T23:37:29.765Z,6.23
2018-04-28T23:39:58.092Z,9.00
2018-04-28T23:42:27.188Z,5.67
2018-04-28T23:44:56.236Z,5.30
2018-04-28T23:47:24.573Z,4.70
2018-04-28T23:49:52.857Z,10.83
2018-04-28T23:52:21.137Z,4.67
2018-04-28T23:54:49.467Z,4.03
2018-04-28T23:57:18.529Z,4.97
2018-04-28T23:59:46.853Z,4.47
